createdAt,value
2022-09-18T00:00:38.209Z,33.52
2022-09-18T00:01:38.332Z,34.00
2022-09-18T00:02:39.228Z,34.48
2022-09-18T00:03:38.174Z,35.13
2022-09-18T00:04:38.192Z,40.28
2022-09-18T00:05:38.162Z,37.22
2022-09-18T00:06:38.171Z,38.83
2022-09-18T00:07:38.222Z,35.61
2022-09-18T00:08:38.140Z,34.00
2022-09-18T00:09:38.154Z,34.00
2022-09-18T00:10:38.123Z,33.52
2022-09-18T00:11:38.114Z,34.64
2022-09-18T00:12:38.109Z,41.89
2022-09-18T00:13:38.104Z,40.61
2022-09-18T00:14:38.119Z,38.83
2022-09-18T00:15:38.084Z,36.09
2022-09-18T00:16:38.129Z,36.74
2022-09-18T00:17:38.069Z,37.71
2022-09-18T00:18:38.067Z,34.80
2022-09-18T00:19:38.078Z,35.77
2022-09-18T00:20:38.040Z,35.13
2022-09-18T00:21:38.035Z,34.97
2022-09-18T00:22:38.036Z,41.89
2022-09-18T00:23:38.108Z,38.67
2022-09-18T00:24:38.040Z,34.80
2022-09-18T00:25:38.002Z,34.80
2022-09-18T00:26:37.995Z,37.71
2022-09-18T00:27:37.990Z,34.16
2022-09-18T00:28:37.981Z,35.13
2022-09-18T00:29:38.001Z,33.35
2022-09-18T00:30:37.971Z,40.93
2022-09-18T00:31:37.989Z,35.29
2022-09-18T00:32:37.956Z,36.90
2022-09-18T00:33:37.947Z,41.41
2022-09-18T00:34:37.960Z,38.99
2022-09-18T00:35:37.929Z,40.93
2022-09-18T00:36:37.925Z,35.29
2022-09-18T00:37:37.914Z,38.35
2022-09-18T00:38:37.908Z,34.00
2022-09-18T00:39:38.004Z,33.35
2022-09-18T00:40:37.921Z,33.84
2022-09-18T00:41:37.882Z,36.09
2022-09-18T00:42:37.874Z,35.77
2022-09-18T00:43:37.867Z,34.32
2022-09-18T00:44:37.881Z,41.25
2022-09-18T00:45:37.848Z,41.57
2022-09-18T00:46:37.920Z,39.64
2022-09-18T00:47:37.834Z,34.64
2022-09-18T00:48:37.825Z,34.32
2022-09-18T00:49:37.841Z,34.48
2022-09-18T00:50:37.809Z,36.90
2022-09-18T00:51:37.802Z,37.71
2022-09-18T00:52:37.792Z,34.64
2022-09-18T00:53:37.780Z,34.48
2022-09-18T00:54:37.801Z,34.16
2022-09-18T00:55:37.840Z,34.80
2022-09-18T00:56:37.764Z,36.25
2022-09-18T00:57:37.752Z,34.97
2022-09-18T00:58:37.748Z,35.93
2022-09-18T00:59:37.766Z,33.68
2022-09-18T01:00:37.754Z,34.00
2022-09-18T01:01:37.775Z,34.97
2022-09-18T01:02:37.716Z,35.61
2022-09-18T01:03:37.705Z,35.45
2022-09-18T01:04:37.724Z,35.45
2022-09-18T01:05:37.688Z,34.32
2022-09-18T01:06:37.683Z,34.64
2022-09-18T01:07:37.675Z,34.00
2022-09-18T01:08:41.813Z,33.52
2022-09-18T01:09:39.683Z,33.35
2022-09-18T01:10:37.646Z,33.35
2022-09-18T01:11:37.718Z,34.97
2022-09-18T01:12:37.628Z,38.03
2022-09-18T01:13:37.619Z,38.83
2022-09-18T01:14:37.645Z,44.31
2022-09-18T01:15:37.613Z,35.93
2022-09-18T01:16:37.649Z,34.00
2022-09-18T01:17:37.596Z,33.68
2022-09-18T01:18:37.586Z,37.06
2022-09-18T01:19:37.603Z,34.32
2022-09-18T01:20:37.576Z,39.16
2022-09-18T01:21:37.567Z,33.19
2022-09-18T01:22:37.564Z,36.09
2022-09-18T01:23:37.546Z,34.32
2022-09-18T01:24:37.565Z,35.29
2022-09-18T01:25:37.534Z,39.32
2022-09-18T01:26:37.534Z,36.90
2022-09-18T01:27:37.596Z,36.90
2022-09-18T01:28:37.510Z,45.60
2022-09-18T01:29:37.523Z,38.51
2022-09-18T01:30:37.500Z,37.54
2022-09-18T01:31:37.523Z,36.74
2022-09-18T01:32:37.480Z,37.38
2022-09-18T01:33:37.476Z,41.41
2022-09-18T01:34:37.490Z,42.06
2022-09-18T01:35:41.420Z,47.86
2022-09-18T01:36:38.446Z,45.28
2022-09-18T01:37:37.447Z,42.86
2022-09-18T01:38:37.426Z,41.73
2022-09-18T01:39:37.448Z,37.87
2022-09-18T01:40:37.464Z,35.13
2022-09-18T01:41:37.406Z,34.97
2022-09-18T01:42:37.398Z,35.29
2022-09-18T01:43:37.468Z,37.54
2022-09-18T01:44:37.402Z,38.03
2022-09-18T01:45:37.380Z,44.96
2022-09-18T01:46:37.429Z,37.71
2022-09-18T01:47:37.364Z,38.03
2022-09-18T01:48:37.351Z,39.16
2022-09-18T01:49:37.381Z,33.84
2022-09-18T01:50:37.337Z,33.68
2022-09-18T01:51:37.329Z,34.00
2022-09-18T01:52:37.322Z,37.87
2022-09-18T01:53:37.315Z,33.35
2022-09-18T01:54:37.341Z,33.52
2022-09-18T01:55:37.300Z,33.52
2022-09-18T01:56:37.290Z,36.09
2022-09-18T01:57:37.283Z,36.74
2022-09-18T01:58:37.274Z,48.34
2022-09-18T01:59:37.346Z,34.00
2022-09-18T02:00:37.288Z,33.52
2022-09-18T02:01:37.398Z,33.68
2022-09-18T02:02:37.329Z,36.58
2022-09-18T02:03:37.235Z,34.80
2022-09-18T02:04:37.224Z,35.93
2022-09-18T02:05:37.250Z,35.13
2022-09-18T02:06:37.212Z,34.16
2022-09-18T02:07:37.203Z,33.35
2022-09-18T02:08:37.196Z,33.68
2022-09-18T02:09:37.189Z,34.32
2022-09-18T02:10:37.205Z,39.80
2022-09-18T02:11:37.181Z,35.45
2022-09-18T02:12:37.168Z,34.48
2022-09-18T02:13:37.155Z,34.64
2022-09-18T02:14:37.161Z,34.64
2022-09-18T02:15:37.243Z,37.22
2022-09-18T02:16:37.134Z,34.32
2022-09-18T02:17:37.130Z,36.09
2022-09-18T02:18:37.118Z,34.16
2022-09-18T02:19:37.110Z,33.52
2022-09-18T02:20:37.129Z,35.29
2022-09-18T02:21:37.097Z,35.13
2022-09-18T02:22:37.090Z,36.25
2022-09-18T02:23:37.077Z,33.68
2022-09-18T02:24:37.072Z,34.16
2022-09-18T02:25:37.088Z,34.64
2022-09-18T02:26:37.055Z,34.97
2022-09-18T02:27:37.117Z,33.68
2022-09-18T02:28:37.041Z,34.97
2022-09-18T02:29:37.030Z,33.52
2022-09-18T02:30:37.056Z,36.42
2022-09-18T02:31:37.173Z,33.19
2022-09-18T02:32:37.009Z,33.19
2022-09-18T02:33:37.010Z,33.19
2022-09-18T02:34:36.995Z,34.00
2022-09-18T02:35:37.015Z,38.67
2022-09-18T02:36:36.986Z,43.51
2022-09-18T02:37:36.975Z,41.25
2022-09-18T02:38:36.971Z,40.77
2022-09-18T02:39:36.958Z,40.28
2022-09-18T02:40:37.003Z,37.22
2022-09-18T02:41:37.940Z,40.12
2022-09-18T02:42:36.930Z,42.38
2022-09-18T02:43:36.925Z,40.93
2022-09-18T02:44:36.917Z,34.48
2022-09-18T02:45:36.931Z,34.80
2022-09-18T02:46:36.974Z,33.52
2022-09-18T02:47:36.973Z,34.48
2022-09-18T02:48:36.889Z,34.32
2022-09-18T02:49:36.879Z,39.80
2022-09-18T02:50:36.897Z,34.64
2022-09-18T02:51:36.856Z,34.00
2022-09-18T02:52:36.850Z,34.16
2022-09-18T02:53:36.845Z,35.93
2022-09-18T02:54:36.833Z,33.52
2022-09-18T02:55:36.860Z,34.64
2022-09-18T02:56:36.818Z,49.79
2022-09-18T02:57:36.811Z,44.63
2022-09-18T02:58:36.803Z,35.13
2022-09-18T02:59:36.797Z,35.13
2022-09-18T03:00:36.832Z,35.61
2022-09-18T03:01:36.918Z,35.13
2022-09-18T03:02:36.805Z,33.19
2022-09-18T03:03:36.852Z,33.52
2022-09-18T03:04:36.758Z,35.61
2022-09-18T03:05:36.756Z,34.64
2022-09-18T03:06:36.765Z,34.00
2022-09-18T03:07:36.736Z,33.68
2022-09-18T03:08:36.725Z,34.48
2022-09-18T03:09:36.721Z,38.83
2022-09-18T03:10:36.726Z,33.52
2022-09-18T03:11:36.728Z,33.35
2022-09-18T03:12:36.696Z,34.32
2022-09-18T03:13:36.686Z,36.09
2022-09-18T03:14:36.686Z,36.09
2022-09-18T03:15:36.677Z,33.35
2022-09-18T03:16:36.731Z,34.64
2022-09-18T03:17:36.660Z,35.13
2022-09-18T03:18:36.649Z,34.80
2022-09-18T03:19:36.721Z,35.13
2022-09-18T03:20:36.638Z,39.80
2022-09-18T03:21:36.656Z,35.29
2022-09-18T03:22:36.620Z,37.71
2022-09-18T03:23:36.612Z,34.16
2022-09-18T03:24:36.605Z,34.48
2022-09-18T03:25:36.601Z,35.13
2022-09-18T03:26:36.614Z,34.80
2022-09-18T03:27:36.589Z,48.50
2022-09-18T03:28:36.587Z,35.77
2022-09-18T03:29:36.569Z,34.16
2022-09-18T03:30:36.560Z,40.12
2022-09-18T03:31:36.647Z,35.13
2022-09-18T03:32:36.548Z,35.45
2022-09-18T03:33:36.534Z,40.44
2022-09-18T03:34:36.527Z,36.58
2022-09-18T03:35:37.606Z,37.22
2022-09-18T03:36:36.547Z,36.74
2022-09-18T03:37:36.506Z,40.77
2022-09-18T03:38:36.499Z,36.74
2022-09-18T03:39:36.491Z,35.13
2022-09-18T03:40:36.559Z,36.42
2022-09-18T03:41:36.503Z,35.61
2022-09-18T03:42:36.470Z,34.80
2022-09-18T03:43:36.465Z,36.25
2022-09-18T03:44:36.462Z,35.61
2022-09-18T03:45:36.451Z,39.96
2022-09-18T03:46:36.509Z,42.06
2022-09-18T03:47:36.856Z,40.28
2022-09-18T03:48:37.432Z,38.99
2022-09-18T03:49:36.427Z,39.64
2022-09-18T03:50:36.412Z,35.13
2022-09-18T03:51:36.505Z,36.25
2022-09-18T03:52:36.395Z,38.51
2022-09-18T03:53:36.392Z,38.67
2022-09-18T03:54:36.384Z,36.74
2022-09-18T03:55:36.367Z,36.25
2022-09-18T03:56:36.385Z,37.06
2022-09-18T03:57:36.357Z,34.48
2022-09-18T03:58:36.345Z,34.64
2022-09-18T03:59:36.339Z,40.77
2022-09-18T04:00:36.332Z,38.83
2022-09-18T04:01:36.381Z,38.51
2022-09-18T04:02:36.356Z,38.67
2022-09-18T04:03:36.298Z,34.80
2022-09-18T04:04:37.309Z,35.13
2022-09-18T04:05:36.297Z,36.42
2022-09-18T04:06:36.321Z,35.61
2022-09-18T04:07:36.359Z,38.35
2022-09-18T04:08:36.271Z,36.74
2022-09-18T04:09:36.269Z,35.61
2022-09-18T04:10:36.257Z,35.29
2022-09-18T04:11:36.282Z,36.09
2022-09-18T04:12:36.238Z,36.90
2022-09-18T04:13:36.230Z,36.42
2022-09-18T04:14:36.226Z,37.06
2022-09-18T04:15:36.217Z,37.22
2022-09-18T04:16:36.289Z,36.09
2022-09-18T04:17:36.197Z,40.93
2022-09-18T04:18:36.198Z,36.58
2022-09-18T04:19:36.187Z,36.74
2022-09-18T04:20:36.186Z,38.03
2022-09-18T04:21:36.202Z,36.42
2022-09-18T04:22:36.170Z,36.58
2022-09-18T04:23:36.240Z,35.93
2022-09-18T04:24:36.146Z,35.77
2022-09-18T04:25:36.144Z,37.54
2022-09-18T04:26:36.169Z,36.90
2022-09-18T04:27:36.126Z,49.79
2022-09-18T04:28:36.121Z,43.99
2022-09-18T04:29:36.131Z,38.67
2022-09-18T04:30:36.099Z,35.93
2022-09-18T04:31:36.173Z,38.19
2022-09-18T04:32:36.091Z,46.41
2022-09-18T04:33:36.075Z,39.80
2022-09-18T04:34:36.068Z,36.74
2022-09-18T04:35:36.062Z,41.73
2022-09-18T04:36:36.079Z,38.99
2022-09-18T04:37:36.050Z,46.41
2022-09-18T04:38:36.037Z,38.03
2022-09-18T04:39:36.103Z,38.51
2022-09-18T04:40:36.112Z,36.90
2022-09-18T04:41:36.015Z,37.22
2022-09-18T04:42:36.034Z,37.38
2022-09-18T04:43:36.006Z,37.87
2022-09-18T04:44:35.982Z,43.18
2022-09-18T04:45:35.982Z,41.09
2022-09-18T04:46:36.044Z,40.44
2022-09-18T04:47:35.991Z,35.45
2022-09-18T04:48:35.960Z,36.25
2022-09-18T04:49:35.952Z,38.03
2022-09-18T04:50:35.945Z,46.57
2022-09-18T04:51:35.941Z,47.70
2022-09-18T04:52:35.955Z,38.99
2022-09-18T04:53:35.924Z,39.16
2022-09-18T04:54:35.972Z,38.67
2022-09-18T04:55:35.985Z,36.74
2022-09-18T04:56:35.909Z,35.77
2022-09-18T04:57:35.918Z,39.64
2022-09-18T04:58:35.881Z,40.61
2022-09-18T04:59:35.877Z,42.54
2022-09-18T05:00:35.945Z,35.77
2022-09-18T05:01:35.907Z,36.25
2022-09-18T05:02:35.874Z,39.96
2022-09-18T05:03:35.844Z,36.74
2022-09-18T05:04:35.841Z,39.32
2022-09-18T05:05:35.849Z,38.67
2022-09-18T05:06:35.824Z,35.45
2022-09-18T05:07:35.844Z,36.25
2022-09-18T05:08:35.808Z,42.22
2022-09-18T05:09:35.806Z,36.58
2022-09-18T05:10:35.800Z,35.93
2022-09-18T05:11:35.882Z,37.06
2022-09-18T05:12:35.805Z,38.67
2022-09-18T05:13:35.781Z,40.12
2022-09-18T05:14:35.762Z,35.93
2022-09-18T05:15:35.760Z,35.61
2022-09-18T05:16:35.829Z,35.29
2022-09-18T05:17:35.774Z,38.35
2022-09-18T05:18:35.737Z,40.44
2022-09-18T05:19:35.725Z,36.74
2022-09-18T05:20:35.736Z,36.58
2022-09-18T05:21:35.713Z,36.25
2022-09-18T05:22:35.726Z,41.25
2022-09-18T05:23:35.697Z,45.12
2022-09-18T05:24:35.687Z,37.54
2022-09-18T05:25:35.682Z,36.90
2022-09-18T05:26:35.677Z,37.87
2022-09-18T05:27:35.772Z,37.87
2022-09-18T05:28:35.660Z,36.90
2022-09-18T05:29:35.653Z,38.51
2022-09-18T05:30:35.642Z,38.67
2022-09-18T05:31:35.688Z,37.22
2022-09-18T05:32:35.656Z,36.74
2022-09-18T05:33:35.620Z,35.45
2022-09-18T05:34:35.612Z,35.45
2022-09-18T05:35:35.607Z,37.22
2022-09-18T05:36:35.595Z,37.06
2022-09-18T05:37:35.620Z,39.16
2022-09-18T05:38:35.579Z,36.58
2022-09-18T05:39:35.571Z,35.61
2022-09-18T05:40:35.668Z,35.13
2022-09-18T05:41:35.554Z,36.09
2022-09-18T05:42:35.586Z,43.99
2022-09-18T05:43:35.618Z,41.25
2022-09-18T05:44:35.531Z,41.09
2022-09-18T05:45:35.540Z,39.48
2022-09-18T05:46:35.580Z,40.12
2022-09-18T05:47:35.550Z,44.63
2022-09-18T05:48:35.504Z,36.74
2022-09-18T05:49:35.503Z,36.09
2022-09-18T05:50:35.490Z,40.93
2022-09-18T05:51:35.471Z,36.09
2022-09-18T05:52:36.499Z,36.74
2022-09-18T05:53:35.475Z,37.71
2022-09-18T05:54:35.458Z,35.93
2022-09-18T05:55:35.458Z,36.58
2022-09-18T05:56:35.442Z,45.60
2022-09-18T05:57:35.464Z,38.67
2022-09-18T05:58:35.429Z,38.35
2022-09-18T05:59:35.504Z,38.67
2022-09-18T06:00:35.418Z,42.70
2022-09-18T06:01:35.431Z,40.12
2022-09-18T06:02:35.443Z,39.32
2022-09-18T06:03:35.420Z,40.44
2022-09-18T06:04:35.386Z,37.22
2022-09-18T06:05:35.377Z,38.51
2022-09-18T06:06:35.373Z,37.87
2022-09-18T06:07:35.367Z,40.77
2022-09-18T06:08:35.379Z,40.12
2022-09-18T06:09:35.346Z,40.61
2022-09-18T06:10:35.338Z,40.12
2022-09-18T06:11:35.329Z,40.28
2022-09-18T06:12:35.334Z,43.99
2022-09-18T06:13:35.343Z,38.51
2022-09-18T06:14:35.309Z,39.32
2022-09-18T06:15:35.378Z,37.71
2022-09-18T06:16:39.934Z,41.57
2022-09-18T06:17:37.282Z,39.16
2022-09-18T06:18:35.308Z,41.25
2022-09-18T06:19:35.279Z,44.63
2022-09-18T06:20:35.270Z,47.86
2022-09-18T06:21:35.261Z,39.32
2022-09-18T06:22:35.250Z,43.02
2022-09-18T06:23:35.265Z,42.54
2022-09-18T06:24:35.238Z,43.02
2022-09-18T06:25:35.222Z,41.41
2022-09-18T06:26:35.218Z,40.44
2022-09-18T06:27:35.210Z,39.48
2022-09-18T06:28:35.221Z,40.61
2022-09-18T06:29:35.197Z,41.41
2022-09-18T06:30:35.197Z,38.03
2022-09-18T06:31:35.225Z,36.90
2022-09-18T06:32:35.167Z,43.02
2022-09-18T06:33:35.200Z,40.61
2022-09-18T06:34:38.653Z,36.25
2022-09-18T06:35:36.150Z,37.22
2022-09-18T06:36:35.144Z,41.73
2022-09-18T06:37:35.134Z,42.38
2022-09-18T06:38:35.124Z,45.76
2022-09-18T06:39:35.144Z,38.35
2022-09-18T06:40:35.183Z,40.28
2022-09-18T06:41:35.097Z,42.38
2022-09-18T06:42:35.096Z,43.34
2022-09-18T06:43:35.098Z,43.67
2022-09-18T06:44:35.107Z,42.22
2022-09-18T06:45:35.112Z,42.70
2022-09-18T06:46:35.147Z,47.21
2022-09-18T06:47:35.142Z,43.18
2022-09-18T06:48:35.050Z,44.79
2022-09-18T06:49:35.064Z,46.57
2022-09-18T06:50:35.032Z,43.02
2022-09-18T06:51:35.015Z,44.47
2022-09-18T06:52:35.011Z,46.41
2022-09-18T06:53:35.012Z,46.08
2022-09-18T06:54:35.023Z,43.34
2022-09-18T06:55:34.990Z,41.57
2022-09-18T06:56:34.985Z,41.89
2022-09-18T06:57:34.973Z,43.51
2022-09-18T06:58:34.968Z,46.57
2022-09-18T06:59:34.987Z,37.87
2022-09-18T07:00:35.006Z,37.87
2022-09-18T07:01:35.039Z,40.77
2022-09-18T07:02:34.988Z,42.06
2022-09-18T07:03:35.013Z,50.43
2022-09-18T07:04:34.942Z,43.99
2022-09-18T07:05:34.910Z,41.89
2022-09-18T07:06:34.904Z,40.77
2022-09-18T07:07:34.885Z,40.93
2022-09-18T07:08:35.886Z,45.60
2022-09-18T07:09:34.906Z,40.77
2022-09-18T07:10:34.872Z,44.79
2022-09-18T07:11:34.865Z,48.18
2022-09-18T07:12:34.854Z,47.53
2022-09-18T07:13:34.845Z,48.82
2022-09-18T07:14:34.870Z,46.08
2022-09-18T07:15:34.865Z,43.99
2022-09-18T07:16:34.867Z,46.08
2022-09-18T07:17:34.814Z,45.28
2022-09-18T07:18:34.814Z,43.02
2022-09-18T07:19:34.899Z,45.60
2022-09-18T07:20:34.793Z,49.31
2022-09-18T07:21:34.782Z,40.93
2022-09-18T07:22:34.781Z,42.06
2022-09-18T07:23:34.772Z,48.66
2022-09-18T07:24:34.788Z,44.96
2022-09-18T07:25:34.749Z,48.02
2022-09-18T07:26:34.745Z,45.92
2022-09-18T07:27:34.737Z,49.79
2022-09-18T07:28:34.736Z,45.76
2022-09-18T07:29:34.745Z,47.05
2022-09-18T07:30:34.707Z,45.44
2022-09-18T07:31:34.773Z,44.96
2022-09-18T07:32:34.698Z,42.86
2022-09-18T07:33:34.687Z,42.38
2022-09-18T07:34:34.706Z,40.93
2022-09-18T07:35:34.757Z,48.50
2022-09-18T07:36:34.664Z,50.11
2022-09-18T07:37:34.658Z,48.34
2022-09-18T07:38:34.659Z,44.63
2022-09-18T07:39:34.678Z,42.54
2022-09-18T07:40:34.749Z,43.83
2022-09-18T07:41:34.616Z,49.47
2022-09-18T07:42:35.620Z,43.99
2022-09-18T07:43:34.614Z,43.51
2022-09-18T07:44:34.623Z,42.06
2022-09-18T07:45:34.594Z,40.77
2022-09-18T07:46:34.650Z,46.73
2022-09-18T07:47:34.594Z,50.43
2022-09-18T07:48:34.575Z,45.28
2022-09-18T07:49:34.590Z,45.28
2022-09-18T07:50:34.559Z,49.31
2022-09-18T07:51:34.626Z,45.60
2022-09-18T07:52:34.550Z,49.47
2022-09-18T07:53:34.532Z,44.63
2022-09-18T07:54:34.567Z,44.79
2022-09-18T07:55:34.530Z,41.89
2022-09-18T07:56:34.512Z,43.34
2022-09-18T07:57:34.513Z,44.96
2022-09-18T07:58:34.503Z,43.67
2022-09-18T07:59:34.526Z,40.93
2022-09-18T08:00:34.487Z,45.92
2022-09-18T08:01:34.515Z,53.01
2022-09-18T08:02:34.630Z,47.37
2022-09-18T08:03:39.137Z,44.15
2022-09-18T08:04:35.485Z,42.70
2022-09-18T08:05:34.443Z,48.34
2022-09-18T08:06:34.432Z,43.67
2022-09-18T08:07:34.503Z,44.15
2022-09-18T08:08:34.420Z,51.08
2022-09-18T08:09:34.436Z,43.83
2022-09-18T08:10:34.411Z,40.28
2022-09-18T08:11:34.423Z,44.15
2022-09-18T08:12:34.384Z,39.48
2022-09-18T08:13:34.382Z,46.08
2022-09-18T08:14:34.400Z,45.76
2022-09-18T08:15:34.369Z,46.89
2022-09-18T08:16:34.439Z,47.21
2022-09-18T08:17:34.353Z,40.93
2022-09-18T08:18:34.342Z,40.12
2022-09-18T08:19:34.362Z,49.31
2022-09-18T08:20:34.333Z,48.66
2022-09-18T08:21:34.324Z,41.41
2022-09-18T08:22:34.321Z,46.25
2022-09-18T08:23:34.388Z,48.34
2022-09-18T08:24:34.320Z,43.67
2022-09-18T08:25:34.289Z,44.31
2022-09-18T08:26:34.280Z,46.73
2022-09-18T08:27:34.282Z,41.89
2022-09-18T08:28:34.261Z,47.21
2022-09-18T08:29:34.298Z,52.05
2022-09-18T08:30:34.252Z,46.57
2022-09-18T08:31:34.262Z,43.83
2022-09-18T08:32:34.235Z,43.67
2022-09-18T08:33:34.232Z,45.12
2022-09-18T08:34:34.244Z,44.47
2022-09-18T08:35:34.217Z,45.12
2022-09-18T08:36:34.204Z,48.66
2022-09-18T08:37:34.192Z,46.73
2022-09-18T08:38:34.195Z,49.15
2022-09-18T08:39:34.278Z,48.18
2022-09-18T08:40:34.229Z,45.12
2022-09-18T08:41:34.160Z,47.21
2022-09-18T08:42:34.154Z,48.34
2022-09-18T08:43:34.149Z,42.54
2022-09-18T08:44:34.175Z,43.18
2022-09-18T08:45:34.132Z,43.67
2022-09-18T08:46:34.160Z,45.76
2022-09-18T08:47:34.127Z,47.86
2022-09-18T08:48:34.110Z,41.41
2022-09-18T08:49:34.130Z,48.66
2022-09-18T08:50:38.372Z,43.67
2022-09-18T08:51:35.087Z,38.83
2022-09-18T08:52:34.076Z,45.28
2022-09-18T08:53:34.074Z,46.41
2022-09-18T08:54:34.094Z,48.34
2022-09-18T08:55:34.135Z,43.99
2022-09-18T08:56:34.044Z,51.08
2022-09-18T08:57:34.034Z,48.18
2022-09-18T08:58:34.019Z,48.18
2022-09-18T08:59:34.038Z,48.02
2022-09-18T09:00:34.044Z,46.08
2022-09-18T09:01:34.002Z,40.12
2022-09-18T09:02:34.032Z,44.15
2022-09-18T09:03:33.988Z,42.22
2022-09-18T09:04:33.985Z,48.66
2022-09-18T09:05:34.002Z,49.47
2022-09-18T09:06:33.965Z,42.86
2022-09-18T09:07:33.958Z,41.41
2022-09-18T09:08:33.948Z,41.89
2022-09-18T09:09:33.943Z,41.57
2022-09-18T09:10:33.952Z,45.12
2022-09-18T09:11:33.999Z,46.73
2022-09-18T09:12:33.915Z,45.92
2022-09-18T09:13:33.904Z,42.70
2022-09-18T09:14:55.608Z,47.70
2022-09-18T09:15:35.923Z,45.92
2022-09-18T09:16:33.930Z,45.44
2022-09-18T09:17:33.874Z,45.76
2022-09-18T09:18:33.870Z,44.15
2022-09-18T09:19:33.859Z,46.25
2022-09-18T09:20:33.873Z,43.67
2022-09-18T09:21:33.844Z,43.18
2022-09-18T09:22:33.834Z,43.67
2022-09-18T09:23:33.825Z,44.63
2022-09-18T09:24:33.817Z,43.67
2022-09-18T09:25:33.839Z,45.60
2022-09-18T09:26:33.803Z,42.54
2022-09-18T09:27:33.870Z,46.41
2022-09-18T09:28:33.782Z,42.70
2022-09-18T09:29:33.780Z,40.77
2022-09-18T09:30:33.799Z,48.82
2022-09-18T09:31:33.799Z,43.83
2022-09-18T09:32:33.757Z,47.53
2022-09-18T09:33:33.766Z,50.76
2022-09-18T09:34:33.740Z,46.89
2022-09-18T09:35:33.756Z,44.15
2022-09-18T09:36:33.726Z,48.18
2022-09-18T09:37:34.010Z,47.86
2022-09-18T09:38:34.711Z,48.50
2022-09-18T09:39:33.705Z,46.57
2022-09-18T09:40:33.746Z,49.31
2022-09-18T09:41:34.687Z,42.22
2022-09-18T09:42:33.679Z,47.86
2022-09-18T09:43:33.742Z,46.41
2022-09-18T09:44:33.658Z,48.50
2022-09-18T09:45:33.677Z,50.92
2022-09-18T09:46:33.712Z,45.92
2022-09-18T09:47:33.631Z,49.63
2022-09-18T09:48:33.626Z,47.21
2022-09-18T09:49:33.617Z,44.63
2022-09-18T09:50:33.631Z,52.53
2022-09-18T09:51:33.605Z,46.57
2022-09-18T09:52:33.590Z,49.95
2022-09-18T09:53:33.583Z,48.66
2022-09-18T09:54:33.587Z,47.21
2022-09-18T09:55:33.599Z,50.11
2022-09-18T09:56:33.566Z,44.79
2022-09-18T09:57:33.559Z,48.82
2022-09-18T09:58:33.547Z,45.76
2022-09-18T09:59:33.623Z,43.83
2022-09-18T10:00:33.613Z,52.69
2022-09-18T10:01:33.548Z,43.67
2022-09-18T10:02:33.517Z,43.67
2022-09-18T10:03:33.510Z,43.67
2022-09-18T10:04:33.505Z,47.21
2022-09-18T10:05:33.505Z,44.79
2022-09-18T10:06:33.510Z,45.12
2022-09-18T10:07:33.481Z,47.86
2022-09-18T10:08:33.477Z,46.89
2022-09-18T10:09:33.468Z,47.21
2022-09-18T10:10:33.487Z,49.47
2022-09-18T10:11:33.459Z,47.21
2022-09-18T10:12:33.446Z,53.01
2022-09-18T10:13:33.436Z,47.05
2022-09-18T10:14:33.431Z,48.02
2022-09-18T10:15:33.499Z,48.34
2022-09-18T10:16:33.560Z,47.70
2022-09-18T10:17:33.415Z,46.25
2022-09-18T10:18:33.398Z,49.15
2022-09-18T10:19:33.392Z,44.96
2022-09-18T10:20:33.412Z,43.18
2022-09-18T10:21:33.380Z,47.21
2022-09-18T10:22:33.368Z,47.86
2022-09-18T10:23:34.092Z,48.50
2022-09-18T10:24:34.354Z,49.47
2022-09-18T10:25:33.345Z,48.18
2022-09-18T10:26:33.366Z,46.41
2022-09-18T10:27:33.338Z,43.51
2022-09-18T10:28:33.325Z,45.76
2022-09-18T10:29:35.927Z,45.12
2022-09-18T10:30:34.296Z,43.83
2022-09-18T10:31:34.469Z,44.79
2022-09-18T10:32:33.299Z,47.37
2022-09-18T10:33:33.319Z,45.76
2022-09-18T10:34:33.277Z,49.31
2022-09-18T10:35:33.270Z,46.89
2022-09-18T10:36:33.283Z,47.21
2022-09-18T10:37:33.250Z,46.73
2022-09-18T10:38:33.247Z,47.86
2022-09-18T10:39:33.238Z,44.96
2022-09-18T10:40:33.296Z,48.50
2022-09-18T10:41:33.247Z,48.18
2022-09-18T10:42:33.211Z,44.15
2022-09-18T10:43:33.205Z,46.25
2022-09-18T10:44:33.196Z,49.95
2022-09-18T10:45:33.187Z,49.95
2022-09-18T10:46:33.290Z,45.76
2022-09-18T10:47:33.245Z,46.57
2022-09-18T10:48:33.163Z,46.25
2022-09-18T10:49:33.159Z,51.72
2022-09-18T10:50:34.502Z,48.34
2022-09-18T10:51:34.164Z,44.96
2022-09-18T10:52:33.133Z,52.05
2022-09-18T10:53:33.131Z,46.73
2022-09-18T10:54:33.121Z,42.06
2022-09-18T10:55:33.113Z,46.57
2022-09-18T10:56:33.128Z,53.98
2022-09-18T10:57:33.099Z,44.96
2022-09-18T10:58:33.089Z,46.89
2022-09-18T10:59:33.080Z,46.89
2022-09-18T11:00:33.139Z,47.37
2022-09-18T11:01:33.147Z,45.28
2022-09-18T11:02:33.153Z,47.21
2022-09-18T11:03:33.128Z,44.47
2022-09-18T11:04:33.053Z,45.44
2022-09-18T11:05:33.037Z,49.95
2022-09-18T11:06:33.054Z,47.05
2022-09-18T11:07:33.020Z,45.28
2022-09-18T11:08:33.010Z,48.02
2022-09-18T11:09:32.997Z,51.08
2022-09-18T11:10:33.994Z,45.92
2022-09-18T11:11:33.012Z,47.21
2022-09-18T11:12:32.982Z,49.63
2022-09-18T11:13:32.975Z,48.50
2022-09-18T11:14:32.965Z,45.76
2022-09-18T11:15:32.959Z,50.43
2022-09-18T11:16:33.013Z,44.47
2022-09-18T11:17:32.939Z,43.83
2022-09-18T11:18:32.935Z,46.89
2022-09-18T11:19:33.003Z,46.89
2022-09-18T11:20:32.909Z,46.57
2022-09-18T11:21:33.932Z,47.05
2022-09-18T11:22:32.904Z,47.37
2022-09-18T11:23:32.894Z,49.47
2022-09-18T11:24:32.884Z,48.50
2022-09-18T11:25:32.875Z,45.76
2022-09-18T11:26:32.893Z,51.56
2022-09-18T11:27:32.860Z,50.27
2022-09-18T11:28:32.855Z,50.92
2022-09-18T11:29:32.842Z,41.41
2022-09-18T11:30:32.834Z,43.99
2022-09-18T11:31:32.923Z,49.63
2022-09-18T11:32:32.817Z,50.92
2022-09-18T11:33:32.815Z,45.28
2022-09-18T11:34:32.799Z,44.96
2022-09-18T11:35:32.874Z,47.53
2022-09-18T11:36:32.823Z,43.34
2022-09-18T11:37:32.777Z,48.34
2022-09-18T11:38:32.768Z,50.11
2022-09-18T11:39:32.761Z,46.25
2022-09-18T11:40:32.808Z,44.15
2022-09-18T11:41:32.772Z,47.86
2022-09-18T11:42:32.756Z,48.34
2022-09-18T11:43:32.729Z,44.79
2022-09-18T11:44:32.721Z,50.43
2022-09-18T11:45:32.712Z,47.70
2022-09-18T11:46:32.776Z,53.17
2022-09-18T11:47:32.695Z,46.25
2022-09-18T11:48:32.686Z,48.34
2022-09-18T11:49:32.685Z,48.34
2022-09-18T11:50:32.675Z,48.66
2022-09-18T11:51:32.776Z,49.15
2022-09-18T11:52:32.648Z,46.57
2022-09-18T11:53:33.646Z,49.95
2022-09-18T11:54:32.642Z,51.56
2022-09-18T11:55:32.628Z,50.11
2022-09-18T11:56:32.653Z,51.08
2022-09-18T11:57:32.614Z,51.72
2022-09-18T11:58:32.607Z,50.43
2022-09-18T11:59:32.600Z,49.47
2022-09-18T12:00:32.593Z,48.02
2022-09-18T12:01:32.588Z,51.40
2022-09-18T12:02:32.694Z,47.53
2022-09-18T12:03:32.620Z,47.21
2022-09-18T12:04:32.565Z,48.98
2022-09-18T12:05:32.554Z,48.82
2022-09-18T12:06:32.573Z,44.96
2022-09-18T12:07:38.034Z,48.50
2022-09-18T12:08:31.176Z,49.31
2022-09-18T12:09:31.163Z,52.85
2022-09-18T12:10:31.159Z,49.15
2022-09-18T12:11:31.175Z,49.47
2022-09-18T12:12:31.140Z,48.50
2022-09-18T12:13:31.148Z,49.63
2022-09-18T12:14:31.127Z,48.18
2022-09-18T12:15:31.121Z,49.47
2022-09-18T12:16:31.188Z,49.31
2022-09-18T12:17:31.100Z,48.18
2022-09-18T12:18:31.089Z,47.53
2022-09-18T12:19:31.081Z,46.57
2022-09-18T12:20:31.078Z,45.76
2022-09-18T12:21:31.097Z,49.15
2022-09-18T12:22:31.061Z,46.57
2022-09-18T12:23:31.128Z,44.31
2022-09-18T12:24:31.036Z,47.86
2022-09-18T12:25:31.031Z,52.21
2022-09-18T12:26:31.045Z,51.24
2022-09-18T12:27:31.008Z,47.21
2022-09-18T12:28:31.002Z,47.21
2022-09-18T12:29:30.989Z,48.50
2022-09-18T12:30:31.003Z,49.79
2022-09-18T12:31:31.050Z,48.98
2022-09-18T12:32:30.988Z,47.37
2022-09-18T12:33:34.027Z,50.92
2022-09-18T12:34:31.947Z,47.21
2022-09-18T12:35:30.944Z,50.60
2022-09-18T12:36:30.931Z,48.50
2022-09-18T12:37:30.946Z,47.86
2022-09-18T12:38:30.916Z,46.08
2022-09-18T12:39:31.656Z,47.05
2022-09-18T12:40:31.608Z,49.31
2022-09-18T12:41:31.565Z,50.43
2022-09-18T12:42:31.581Z,53.33
2022-09-18T12:43:31.553Z,50.60
2022-09-18T12:44:31.548Z,49.95
2022-09-18T12:45:31.567Z,52.37
2022-09-18T12:46:31.516Z,49.95
2022-09-18T12:47:31.538Z,46.89
2022-09-18T12:48:31.504Z,47.21
2022-09-18T12:49:31.494Z,49.95
2022-09-18T12:50:31.484Z,54.14
2022-09-18T12:51:31.474Z,51.40
2022-09-18T12:52:31.495Z,51.08